Swannanoa, NC

4:24 AM EST on November 26, 2014 (GMT -0500)
Rutherford County-Marchman | Change Station
CLOSE
Current Station
Airport
Location: Rutherfordton,
Elevation: 1079 ft
Nearby Weather Stations
Active Advisory: Winter Weather Advisory

Elev 1079 ft 35.43 °N, 81.94 °W | Updated 9 minutes ago

Rain
Rain
43 °F
Feels Like 42 °F
N
4
Wind Variable Wind from NNE

Today
High -- | Low -- °F
--% Chance of Precip.
Yesterday
High -- | Low -- °F
Precip. -- in
7:16 AM 5:17 PM
Waxing Crescent, 18% visible
Pressure 29.96 in
Visibility 7.0 miles
Clouds Mostly Cloudy 6000 ft
Overcast 7500 ft
Windchill 42 °F
Dew Point 42 °F
Humidity 97%
Rainfall 0.80 in
Snow Depth Not available.
UV 0 out of 12
Pollen 2.10 out of 12
Air Quality Not available.
Flu Activity Not available.
METAR KFQD 260915Z AUTO 03003KT 7SM -RA BKN060 OVC075 06/06 A2996 RMK AO2 P0002 T00630058

More Conditions Fewer Conditions

Pressure 29.96 in
Visibility 7.0 miles
Clouds Mostly Cloudy 6000 ft
Overcast 7500 ft
Windchill 42 °F
Dew Point 42 °F
Humidity 97%
Rainfall 0.80 in
Snow Depth Not available.
UV 0 out of 12
Pollen 2.10 out of 12
Air Quality Not available.
Flu Activity Not available.
METAR KFQD 260915Z AUTO 03003KT 7SM -RA BKN060 OVC075 06/06 A2996 RMK AO2 P0002 T00630058

More Conditions Fewer Conditions

10-Day Weather Forecast

Almanac

Astronomy

Nov. 26, 2014 Rise Set
Actual Time
Civil Twilight
Nautical Twilight
Astronomical Twilight
Moon
Length of Visible Light
Length of Day
Tomorrow will be .
, % of the Moon is Illuminated

Today's Extremes

State Highs State Lows

Community

WunderPhotos

Upload Photos

1,773,702 photos uploaded!

WunderBlogs® & News

Nearby

Air Quality

  Air Quality AQ Index Pollutant
Not available.

Snow Depth

Station Depth Elevation

Earthquake Activity

City Distance Mag. Time & Date
Minimum magnitude displayed is 2.5.

Coastal Water Temperatures

Place Temperature

Nearby Weather Stations